Language selection

Features

My Weather Profile Weather Topics  | 

Bowie - southern half: Past 24 Hour Conditions

 

South Hecate Strait - 46185

11:00 AM PST 15 November 2019Buoy position: 52.43N 129.79W
Disclaimer

This table is a summary of hourly weather conditions for the past 24 hours.
Please note that these observations might not always be representative of weather conditions over their associated marine area.

Date / Time
(PST)
Wind(knots) Wave height(m) Wave period(s) Pressure(kPa) Air tempC) Water tempC)
15 November 2019
11:00 S 12 gust 16 1.7 8.0 101.2 11 10
10:00 SSW 13 gust 16 1.8 14.0 101.1 11 10
9:00 S 10 gust 12 1.8 9.0 101.0 11 10
8:00 SSW 12 gust 13 1.9 14.0 100.9 10 10
7:00 S 8 gust 10 1.9 8.0 100.8 10 10
6:00 SSW 6 gust 8 2.0 8.0 100.8 10 10
5:00 SSW 8 gust 12 2.0 8.0 100.7 10 10
4:00 SSW 8 gust 10 2.1 9.0 100.7 10 10
3:00 SSW 12 gust 16 2.3 7.0 100.6 11 10
2:00 S 8 gust 12 2.6 8.0 100.6 10 10
1:00 S 10 gust 12 2.6 8.0 100.6 10 10
0:00 S 8 gust 10 2.7 9.0 100.6 10 10
14 November 2019
23:00 SSW 10 gust 12 2.8 8.0 100.6 10 10
22:00 S 13 gust 17 2.8 8.0 100.6 11 10
21:00 S 17 gust 22 3.2 8.0 100.5 10 10
20:00 SSE 22 gust 25 3.5 8.0 100.6 11 10
19:00 SSE 23 gust 29 3.4 9.0 100.6 10 10
18:00 SSE 23 gust 27 3.2 9.0 100.6 10 10
17:00 SSE 22 gust 27 3.4 10.0 100.6 10 10
16:00 SSE 23 gust 29 3.4 10.0 100.6 10 10
15:00 SSE 19 gust 25 3.9 10.0 100.6 11 10
14:00 SSE 22 gust 27 3.8 10.0 100.6 10 10
13:00 SSE 23 gust 31 4.1 9.0 100.6 11 10
12:00 SSE 25 gust 31 4.4 10.0 100.7 11 10
11:00 SSE 25 gust 33 4.7 10.0 100.6 10 10

Zoom-in to make a selection

Map of Pacific - South Coast marine weather areas South Nomad - 46036 Sentry Shoal - 46131 South Brooks - 46132 Halibut Bank - 46146 South Moresby - 46147 South Hecate Strait - 46185 West Sea Otter - 46204 La Perouse Bank - 46206 East Dellwood - 46207 Discovery Island Esquimalt Harbour Kelp Reefs Malahat Race Rocks Lightstation Saturna Island Sheringham Point University of Victoria Victoria Gonzales Victoria Int'l Airport Ballenas Islands Campbell River Airport Comox Airport Entrance Island Fanny Island Nanaimo Airport Port Hardy Airport Sisters Islets Estevan Point Port Alberni Sartine Island Solander Island Tofino Airport Grief Point Howe Sound - Pam Rocks Powell River Airport Sechelt Squamish Airport Cape St.James Bella Bella Airport Bella Coola Airport Cathedral Point Herbert Island Point Atkinson Sand Heads Lightstation Tsawwassen Ferry Terminal Vancouver Int'l Airport Vancouver Harbour West Vancouver
Legend:
buoy Buoy
land station Land Station

Pacific - South Coast Area

Another Region

What we are doing

Date modified: